createdAt,value
2023-01-26T00:02:18.734Z,44.13
2023-01-26T00:04:47.970Z,42.50
2023-01-26T00:07:15.924Z,44.85
2023-01-26T00:09:43.880Z,43.58
2023-01-26T00:12:12.310Z,41.92
2023-01-26T00:14:52.051Z,46.00
2023-01-26T00:17:26.799Z,45.58
2023-01-26T00:19:57.855Z,42.97
2023-01-26T00:22:27.243Z,40.92
2023-01-26T00:24:55.145Z,49.75
2023-01-26T00:27:23.134Z,52.30
2023-01-26T00:29:51.186Z,53.72
2023-01-26T00:32:19.087Z,55.37
2023-01-26T00:34:46.964Z,52.70
2023-01-26T00:37:16.371Z,51.35
2023-01-26T00:39:44.229Z,47.78
2023-01-26T00:42:13.957Z,52.72
2023-01-26T00:44:43.308Z,43.60
2023-01-26T00:47:13.493Z,46.08
2023-01-26T00:49:41.319Z,47.13
2023-01-26T00:52:09.439Z,46.50
2023-01-26T00:54:39.047Z,48.33
2023-01-26T00:57:07.003Z,45.72
2023-01-26T00:59:35.087Z,45.35
2023-01-26T01:02:03.620Z,41.97
2023-01-26T01:04:32.053Z,46.55
2023-01-26T01:07:00.024Z,45.13
2023-01-26T01:09:28.059Z,48.03
2023-01-26T01:11:57.281Z,45.45
2023-01-26T01:14:25.211Z,46.47
2023-01-26T01:16:53.362Z,48.85
2023-01-26T01:19:21.275Z,50.85
2023-01-26T01:21:49.173Z,49.75
2023-01-26T01:24:17.315Z,43.17
2023-01-26T01:26:45.395Z,48.13
2023-01-26T01:29:15.475Z,49.58
2023-01-26T01:31:43.847Z,49.15
2023-01-26T01:34:11.850Z,48.38
2023-01-26T01:36:39.809Z,44.88
2023-01-26T01:39:07.716Z,41.63
2023-01-26T01:41:35.740Z,44.13
2023-01-26T01:44:19.369Z,45.92
2023-01-26T01:46:51.793Z,45.65
2023-01-26T01:49:24.118Z,41.53
2023-01-26T01:51:57.100Z,39.87
2023-01-26T01:54:29.899Z,39.63
2023-01-26T01:57:01.535Z,38.08
2023-01-26T01:59:32.462Z,41.72
2023-01-26T02:02:01.015Z,37.05
2023-01-26T02:04:29.140Z,40.60
2023-01-26T02:07:00.118Z,40.70
2023-01-26T02:09:49.172Z,41.97
2023-01-26T02:12:20.335Z,42.60
2023-01-26T02:14:52.989Z,45.40
2023-01-26T02:17:21.583Z,40.40
2023-01-26T02:19:59.402Z,42.17
2023-01-26T02:22:40.763Z,38.33
2023-01-26T02:25:16.608Z,43.35
2023-01-26T02:27:46.222Z,46.08
2023-01-26T02:30:15.212Z,42.15
2023-01-26T02:32:43.096Z,45.50
2023-01-26T02:35:11.153Z,42.92
2023-01-26T02:37:39.097Z,43.95
2023-01-26T02:40:15.045Z,45.90
2023-01-26T02:42:43.316Z,41.15
2023-01-26T02:45:15.783Z,45.70
2023-01-26T02:47:44.859Z,40.80
2023-01-26T02:50:12.788Z,38.92
2023-01-26T02:52:41.049Z,42.65
2023-01-26T02:55:28.702Z,41.78
2023-01-26T02:57:58.512Z,48.47
2023-01-26T03:00:30.353Z,37.95
2023-01-26T03:03:00.950Z,39.42
2023-01-26T03:05:29.570Z,42.78
2023-01-26T03:07:57.799Z,42.57
2023-01-26T03:10:27.014Z,42.13
2023-01-26T03:12:55.014Z,43.25
2023-01-26T03:15:40.438Z,44.70
2023-01-26T03:18:31.038Z,42.95
2023-01-26T03:21:18.280Z,39.95
2023-01-26T03:24:03.708Z,40.80
2023-01-26T03:26:49.379Z,38.28
2023-01-26T03:29:17.585Z,39.42
2023-01-26T03:31:45.449Z,42.97
2023-01-26T03:34:14.820Z,42.58
2023-01-26T03:36:43.436Z,41.00
2023-01-26T03:39:31.564Z,37.67
2023-01-26T03:42:17.049Z,33.88
2023-01-26T03:45:02.514Z,31.67
2023-01-26T03:47:49.630Z,40.83
2023-01-26T03:50:36.904Z,39.47
2023-01-26T03:53:30.732Z,36.30
2023-01-26T03:56:16.134Z,38.08
2023-01-26T03:58:44.232Z,41.05
2023-01-26T04:01:18.596Z,40.85
2023-01-26T04:04:04.936Z,35.97
2023-01-26T04:06:52.550Z,39.10
2023-01-26T04:09:21.169Z,44.20
2023-01-26T04:11:49.714Z,36.50
2023-01-26T04:14:36.369Z,41.08
2023-01-26T04:17:35.406Z,43.70
2023-01-26T04:20:20.877Z,35.63
2023-01-26T04:22:50.169Z,39.00
2023-01-26T04:25:20.265Z,39.47
2023-01-26T04:27:50.496Z,47.78
2023-01-26T04:30:19.152Z,42.92
2023-01-26T04:32:47.387Z,44.15
2023-01-26T04:35:15.388Z,45.05
2023-01-26T04:37:43.313Z,40.90
2023-01-26T04:40:13.928Z,38.38
2023-01-26T04:42:42.017Z,46.95
2023-01-26T04:45:11.571Z,41.47
2023-01-26T04:47:39.563Z,43.72
2023-01-26T04:50:08.422Z,40.75
2023-01-26T04:52:36.349Z,41.47
2023-01-26T04:55:04.373Z,38.85
2023-01-26T04:57:33.617Z,45.13
2023-01-26T05:00:01.527Z,37.55
2023-01-26T05:02:29.439Z,36.75
2023-01-26T05:04:57.320Z,36.97
2023-01-26T05:07:25.673Z,32.35
2023-01-26T05:09:53.780Z,39.35
2023-01-26T05:12:38.146Z,30.35
2023-01-26T05:15:08.457Z,34.80
2023-01-26T05:17:39.837Z,33.05
2023-01-26T05:20:09.171Z,34.90
2023-01-26T05:22:37.136Z,39.08
2023-01-26T05:25:05.656Z,33.17
2023-01-26T05:27:34.021Z,33.67
2023-01-26T05:30:02.016Z,30.23
2023-01-26T05:32:32.442Z,34.08
2023-01-26T05:35:00.417Z,34.25
2023-01-26T05:37:29.623Z,33.50
2023-01-26T05:39:57.554Z,37.78
2023-01-26T05:42:25.860Z,38.53
2023-01-26T05:44:54.115Z,36.95
2023-01-26T05:47:22.844Z,37.75
2023-01-26T05:49:52.407Z,32.95
2023-01-26T05:52:22.744Z,30.27
2023-01-26T05:54:50.770Z,28.70
2023-01-26T05:57:20.276Z,33.88
2023-01-26T05:59:48.230Z,38.38
2023-01-26T06:02:16.213Z,31.95
2023-01-26T06:04:44.232Z,34.30
2023-01-26T06:07:13.862Z,33.25
2023-01-26T06:09:42.497Z,26.60
2023-01-26T06:12:16.191Z,34.53
2023-01-26T06:14:46.965Z,36.65
2023-01-26T06:17:16.531Z,29.40
2023-01-26T06:19:44.724Z,33.15
2023-01-26T06:22:14.825Z,33.80
2023-01-26T06:24:43.655Z,31.48
2023-01-26T06:27:14.599Z,26.85
2023-01-26T06:29:42.912Z,30.33
2023-01-26T06:32:12.032Z,28.92
2023-01-26T06:34:40.008Z,31.92
2023-01-26T06:37:08.539Z,31.98
2023-01-26T06:39:37.829Z,28.38
2023-01-26T06:42:06.219Z,26.48
2023-01-26T06:44:34.098Z,33.80
2023-01-26T06:47:02.613Z,29.65
2023-01-26T06:49:30.575Z,30.63
2023-01-26T06:52:04.004Z,28.85
2023-01-26T06:54:31.920Z,31.73
2023-01-26T06:57:03.645Z,35.22
2023-01-26T06:59:31.527Z,30.10
2023-01-26T07:01:59.361Z,25.85
2023-01-26T07:04:27.860Z,37.97
2023-01-26T07:06:55.964Z,31.25
2023-01-26T07:09:23.802Z,30.67
2023-01-26T07:11:51.820Z,31.05
2023-01-26T07:14:21.043Z,32.25
2023-01-26T07:16:49.014Z,31.33
2023-01-26T07:19:16.900Z,35.22
2023-01-26T07:21:44.757Z,31.95
2023-01-26T07:24:12.850Z,32.42
2023-01-26T07:26:41.065Z,34.88
2023-01-26T07:29:09.155Z,34.40
2023-01-26T07:31:38.504Z,31.67
2023-01-26T07:34:06.405Z,33.63
2023-01-26T07:36:34.214Z,33.25
2023-01-26T07:39:02.056Z,32.88
2023-01-26T07:41:30.006Z,36.20
2023-01-26T07:43:58.000Z,28.52
2023-01-26T07:46:26.030Z,31.98
2023-01-26T07:48:55.366Z,29.15
2023-01-26T07:51:23.532Z,34.25
2023-01-26T07:53:51.431Z,34.85
2023-01-26T07:56:20.511Z,27.70
2023-01-26T07:58:51.856Z,28.75
2023-01-26T08:01:20.699Z,32.50
2023-01-26T08:03:51.755Z,33.22
2023-01-26T08:06:21.258Z,27.45
2023-01-26T08:08:53.535Z,33.08
2023-01-26T08:11:23.378Z,31.33
2023-01-26T08:13:51.459Z,31.17
2023-01-26T08:16:19.391Z,37.85
2023-01-26T08:18:48.269Z,34.97
2023-01-26T08:21:18.366Z,27.95
2023-01-26T08:23:51.327Z,34.53
2023-01-26T08:26:20.623Z,31.02
2023-01-26T08:28:49.576Z,41.53
2023-01-26T08:31:20.528Z,34.72
2023-01-26T08:33:50.707Z,40.10
2023-01-26T08:36:22.344Z,33.17
2023-01-26T08:38:52.429Z,34.83
2023-01-26T08:41:20.484Z,31.37
2023-01-26T08:43:48.557Z,32.20
2023-01-26T08:46:16.628Z,33.53
2023-01-26T08:48:44.773Z,36.57
2023-01-26T08:51:12.669Z,38.73
2023-01-26T08:53:40.546Z,37.80
2023-01-26T08:56:12.736Z,31.20
2023-01-26T08:58:40.941Z,32.93
2023-01-26T09:01:11.991Z,32.97
2023-01-26T09:03:40.035Z,29.77
2023-01-26T09:06:09.851Z,32.17
2023-01-26T09:08:39.216Z,27.90
2023-01-26T09:11:08.744Z,31.90
2023-01-26T09:13:37.324Z,30.13
2023-01-26T09:16:06.096Z,26.83
2023-01-26T09:18:34.178Z,28.52
2023-01-26T09:21:06.499Z,29.17
2023-01-26T09:23:35.838Z,29.10
2023-01-26T09:26:04.567Z,31.65
2023-01-26T09:28:33.862Z,29.97
2023-01-26T09:31:05.170Z,31.30
2023-01-26T09:33:34.468Z,30.20
2023-01-26T09:36:07.152Z,34.50
2023-01-26T09:38:35.033Z,29.43
2023-01-26T09:41:08.135Z,27.80
2023-01-26T09:43:41.651Z,29.63
2023-01-26T09:46:22.570Z,30.10
2023-01-26T09:49:02.177Z,27.63
2023-01-26T09:51:34.860Z,26.77
2023-01-26T09:54:10.360Z,31.77
2023-01-26T09:56:38.332Z,34.10
2023-01-26T09:59:18.044Z,33.53
2023-01-26T10:01:54.291Z,33.77
2023-01-26T10:04:32.749Z,41.17
2023-01-26T10:07:02.802Z,31.20
2023-01-26T10:09:35.547Z,41.77
2023-01-26T10:12:05.968Z,34.87
2023-01-26T10:14:40.518Z,40.10
2023-01-26T10:17:15.964Z,32.20
2023-01-26T10:19:46.768Z,35.63
2023-01-26T10:22:20.925Z,31.77
2023-01-26T10:24:51.767Z,37.90
2023-01-26T10:27:19.958Z,40.00
2023-01-26T10:29:49.477Z,59.97
2023-01-26T10:32:19.134Z,54.87
2023-01-26T10:34:49.499Z,42.93
2023-01-26T10:37:22.657Z,45.07
2023-01-26T10:40:01.825Z,41.03
2023-01-26T10:42:32.262Z,45.77
2023-01-26T10:45:03.318Z,45.87
2023-01-26T10:47:31.228Z,44.83
2023-01-26T10:50:23.155Z,47.53
2023-01-26T10:52:59.501Z,35.97
2023-01-26T10:55:27.717Z,39.73
2023-01-26T10:57:55.788Z,41.87
2023-01-26T11:00:30.385Z,40.10
2023-01-26T11:03:06.268Z,40.73
2023-01-26T11:05:34.832Z,36.63
2023-01-26T11:08:03.647Z,39.23
2023-01-26T11:10:33.908Z,39.97
2023-01-26T11:13:13.412Z,38.83
2023-01-26T11:15:44.529Z,40.97
2023-01-26T11:18:30.403Z,45.23
2023-01-26T11:21:01.666Z,41.97
2023-01-26T11:23:50.682Z,44.93
2023-01-26T11:27:04.009Z,42.53
2023-01-26T11:29:51.856Z,48.50
2023-01-26T11:32:25.955Z,51.90
2023-01-26T11:35:03.152Z,55.73
2023-01-26T11:37:40.851Z,45.63
2023-01-26T11:40:31.117Z,52.10
2023-01-26T11:43:23.072Z,47.90
2023-01-26T11:46:05.715Z,52.73
2023-01-26T11:48:46.194Z,47.60
2023-01-26T11:51:25.383Z,56.80
2023-01-26T11:54:09.410Z,54.17
2023-01-26T11:56:52.131Z,49.13
2023-01-26T11:59:26.240Z,45.57
2023-01-26T12:01:59.644Z,45.27
2023-01-26T12:04:32.631Z,48.00
2023-01-26T12:07:06.655Z,51.50
2023-01-26T12:09:38.874Z,46.53
2023-01-26T12:12:13.151Z,45.20
2023-01-26T12:14:48.991Z,38.63
2023-01-26T12:17:35.858Z,40.43
2023-01-26T12:20:20.998Z,39.30
2023-01-26T12:22:54.974Z,42.90
2023-01-26T12:25:31.328Z,38.87
2023-01-26T12:28:14.112Z,45.93
2023-01-26T12:30:49.928Z,43.90
2023-01-26T12:33:18.238Z,48.50
2023-01-26T12:35:58.677Z,49.43
2023-01-26T12:38:40.433Z,45.70
2023-01-26T12:41:15.063Z,44.87
2023-01-26T12:43:56.336Z,49.27
2023-01-26T12:46:27.994Z,42.93
2023-01-26T12:49:02.679Z,40.57
2023-01-26T12:51:35.976Z,38.03
2023-01-26T12:54:09.153Z,39.23
2023-01-26T12:56:43.312Z,42.20
2023-01-26T12:59:46.578Z,39.33
2023-01-26T13:02:20.880Z,33.83
2023-01-26T13:04:49.905Z,40.70
2023-01-26T13:07:34.240Z,30.63
2023-01-26T13:10:25.203Z,35.03
2023-01-26T13:12:55.607Z,37.17
2023-01-26T13:15:25.639Z,37.87
2023-01-26T13:17:55.880Z,35.87
2023-01-26T13:20:43.957Z,34.33
2023-01-26T13:23:52.670Z,33.87
2023-01-26T13:26:53.367Z,30.10
2023-01-26T13:29:31.816Z,35.33
2023-01-26T13:32:02.077Z,27.93
2023-01-26T13:34:34.808Z,28.87
2023-01-26T13:37:11.291Z,28.43
2023-01-26T13:39:42.264Z,27.17
2023-01-26T13:42:21.788Z,25.40
2023-01-26T13:44:55.276Z,24.17
2023-01-26T13:47:28.965Z,29.90
2023-01-26T13:49:56.977Z,28.97
2023-01-26T13:52:27.502Z,25.77
2023-01-26T13:54:57.778Z,25.40
2023-01-26T13:57:28.729Z,27.33
2023-01-26T14:00:00.218Z,23.77
2023-01-26T14:02:31.187Z,24.33
2023-01-26T14:05:00.378Z,21.03
2023-01-26T14:07:32.025Z,18.33
2023-01-26T14:10:02.714Z,24.67
2023-01-26T14:12:35.838Z,19.07
2023-01-26T14:15:08.994Z,23.07
2023-01-26T14:17:47.567Z,23.07
2023-01-26T14:20:25.675Z,19.10
2023-01-26T14:23:20.907Z,23.33
2023-01-26T14:25:58.695Z,23.93
2023-01-26T14:28:31.316Z,21.40
2023-01-26T14:31:03.106Z,22.90
2023-01-26T14:33:32.997Z,16.60
2023-01-26T14:36:02.585Z,18.37
2023-01-26T14:38:33.031Z,14.00
2023-01-26T14:41:02.419Z,15.93
2023-01-26T14:43:31.882Z,12.90
2023-01-26T14:46:03.859Z,11.70
2023-01-26T14:48:36.188Z,13.60
2023-01-26T14:51:08.177Z,14.70
2023-01-26T14:53:36.139Z,10.90
2023-01-26T14:56:04.068Z,8.97
2023-01-26T14:58:34.541Z,13.43
2023-01-26T15:01:04.738Z,8.17
2023-01-26T15:03:36.780Z,9.23
2023-01-26T15:06:18.813Z,6.77
2023-01-26T15:08:56.568Z,9.87
2023-01-26T15:11:48.390Z,9.63
2023-01-26T15:14:35.265Z,8.13
2023-01-26T15:17:03.531Z,7.80
2023-01-26T15:19:41.522Z,8.63
2023-01-26T15:22:22.641Z,9.20
2023-01-26T15:25:01.748Z,6.73
2023-01-26T15:27:34.867Z,9.77
2023-01-26T15:30:06.536Z,6.73
2023-01-26T15:32:40.872Z,5.77
2023-01-26T15:35:21.915Z,9.27
2023-01-26T15:37:50.769Z,6.57
2023-01-26T15:40:19.014Z,6.57
2023-01-26T15:42:46.902Z,8.87
2023-01-26T15:45:25.729Z,8.13
2023-01-26T15:47:53.710Z,9.67
2023-01-26T15:50:27.917Z,11.17
2023-01-26T15:52:56.445Z,10.70
2023-01-26T15:55:29.095Z,13.77
2023-01-26T15:57:56.985Z,13.10
2023-01-26T16:00:26.392Z,11.93
2023-01-26T16:02:54.343Z,11.77
2023-01-26T16:05:25.141Z,11.83
2023-01-26T16:07:53.125Z,15.50
2023-01-26T16:10:23.345Z,18.00
2023-01-26T16:12:52.958Z,11.77
2023-01-26T16:15:38.486Z,14.33
2023-01-26T16:18:06.727Z,13.97
2023-01-26T16:20:35.508Z,17.13
2023-01-26T16:23:03.359Z,21.77
2023-01-26T16:25:32.679Z,16.73
2023-01-26T16:28:00.800Z,18.17
2023-01-26T16:30:30.081Z,16.80
2023-01-26T16:32:57.957Z,20.73
2023-01-26T16:35:28.844Z,20.80
2023-01-26T16:37:56.769Z,22.67
2023-01-26T16:40:24.650Z,21.27
2023-01-26T16:42:55.092Z,22.33
2023-01-26T16:45:26.662Z,24.63
2023-01-26T16:47:59.725Z,21.80
2023-01-26T16:50:29.277Z,25.10
2023-01-26T16:53:18.193Z,28.60
2023-01-26T16:55:46.252Z,32.60
2023-01-26T16:58:14.187Z,28.07
2023-01-26T17:00:42.368Z,28.53
2023-01-26T17:03:13.187Z,32.37
2023-01-26T17:05:41.856Z,31.20
2023-01-26T17:08:09.780Z,31.83
2023-01-26T17:10:38.960Z,33.40
2023-01-26T17:13:16.199Z,33.20
2023-01-26T17:15:45.671Z,41.60
2023-01-26T17:18:15.314Z,39.90
2023-01-26T17:20:43.196Z,32.43
2023-01-26T17:23:11.100Z,41.50
2023-01-26T17:25:39.184Z,42.87
2023-01-26T17:28:07.144Z,43.30
2023-01-26T17:30:35.060Z,36.83
2023-01-26T17:33:02.978Z,45.03
2023-01-26T17:35:32.156Z,47.20
2023-01-26T17:38:00.091Z,41.37
2023-01-26T17:40:28.013Z,48.23
2023-01-26T17:42:55.870Z,43.73
2023-01-26T17:45:24.151Z,50.07
2023-01-26T17:47:52.068Z,53.00
2023-01-26T17:50:20.072Z,59.40
2023-01-26T17:52:49.333Z,47.90
2023-01-26T17:55:17.410Z,55.27
2023-01-26T17:57:45.315Z,57.20
2023-01-26T18:00:14.591Z,53.83
2023-01-26T18:02:42.518Z,48.57
2023-01-26T18:05:11.116Z,51.17
2023-01-26T18:07:39.133Z,54.73
2023-01-26T18:10:10.219Z,46.53
2023-01-26T18:12:38.052Z,50.93
2023-01-26T18:15:06.929Z,58.63
2023-01-26T18:17:36.597Z,53.33
2023-01-26T18:20:04.642Z,55.80
2023-01-26T18:22:32.922Z,60.00
2023-01-26T18:25:00.860Z,47.13
2023-01-26T18:27:30.104Z,52.43
2023-01-26T18:29:58.176Z,50.70
2023-01-26T18:32:26.100Z,60.37
2023-01-26T18:34:54.075Z,55.30
2023-01-26T18:37:22.029Z,65.77
2023-01-26T18:39:50.207Z,55.83
2023-01-26T18:42:18.135Z,57.67
2023-01-26T18:44:48.357Z,50.37
2023-01-26T18:47:16.677Z,56.30
2023-01-26T18:49:44.503Z,56.20
2023-01-26T18:52:12.356Z,61.53
2023-01-26T18:54:40.191Z,68.70
2023-01-26T18:57:08.171Z,60.80
2023-01-26T18:59:36.067Z,63.80
2023-01-26T19:02:05.476Z,58.13
2023-01-26T19:04:33.577Z,59.53
2023-01-26T19:07:01.514Z,56.57
2023-01-26T19:09:33.090Z,57.73
2023-01-26T19:12:02.129Z,57.50
2023-01-26T19:14:32.148Z,61.10
2023-01-26T19:17:00.440Z,62.50
2023-01-26T19:19:31.726Z,61.60
2023-01-26T19:21:59.649Z,68.90
2023-01-26T19:24:27.604Z,72.43
2023-01-26T19:26:55.820Z,74.43
2023-01-26T19:29:23.684Z,77.20
2023-01-26T19:31:51.627Z,65.90
2023-01-26T19:34:19.552Z,59.90
2023-01-26T19:36:49.201Z,76.93
2023-01-26T19:39:17.217Z,74.40
2023-01-26T19:41:46.311Z,72.50
2023-01-26T19:44:14.274Z,72.70
2023-01-26T19:46:42.550Z,77.07
2023-01-26T19:49:11.799Z,81.97
2023-01-26T19:51:39.884Z,72.47
2023-01-26T19:54:10.108Z,60.07
2023-01-26T19:56:38.037Z,74.37
2023-01-26T19:59:07.824Z,68.40
2023-01-26T20:01:35.896Z,72.93
2023-01-26T20:04:05.715Z,73.23
2023-01-26T20:06:35.904Z,74.10
2023-01-26T20:09:05.111Z,67.90
2023-01-26T20:11:34.649Z,68.90
2023-01-26T20:14:04.630Z,67.17
2023-01-26T20:16:34.244Z,77.37
2023-01-26T20:19:03.303Z,59.90
2023-01-26T20:21:31.964Z,68.13
2023-01-26T20:24:05.141Z,51.43
2023-01-26T20:26:35.513Z,61.17
2023-01-26T20:29:03.623Z,69.63
2023-01-26T20:31:32.669Z,62.80
2023-01-26T20:34:01.937Z,69.57
2023-01-26T20:36:30.140Z,66.27
2023-01-26T20:38:58.050Z,63.57
2023-01-26T20:41:28.232Z,59.27
2023-01-26T20:44:02.688Z,66.10
2023-01-26T20:46:33.426Z,60.90
2023-01-26T20:49:02.005Z,59.83
2023-01-26T20:51:34.074Z,60.37
2023-01-26T20:54:03.627Z,66.87
2023-01-26T20:56:32.462Z,57.53
2023-01-26T20:59:01.828Z,62.33
2023-01-26T21:01:30.262Z,76.27
2023-01-26T21:03:58.164Z,56.17
2023-01-26T21:06:26.239Z,62.30
2023-01-26T21:08:55.454Z,52.50
2023-01-26T21:11:25.405Z,67.33
2023-01-26T21:13:53.601Z,54.33
2023-01-26T21:16:23.539Z,45.67
2023-01-26T21:18:51.654Z,52.27
2023-01-26T21:21:21.533Z,60.27
2023-01-26T21:23:49.934Z,53.53
2023-01-26T21:26:21.947Z,50.93
2023-01-26T21:28:54.504Z,43.20
2023-01-26T21:31:25.972Z,47.40
2023-01-26T21:33:54.765Z,46.23
2023-01-26T21:36:28.559Z,44.27
2023-01-26T21:38:57.950Z,46.53
2023-01-26T21:41:45.811Z,46.63
2023-01-26T21:44:15.835Z,52.33
2023-01-26T21:46:45.912Z,43.50
2023-01-26T21:49:14.833Z,52.80
2023-01-26T21:52:00.668Z,39.43
2023-01-26T21:54:29.912Z,44.03
2023-01-26T21:56:58.382Z,53.17
2023-01-26T21:59:25.323Z,40.50
2023-01-26T22:01:56.428Z,43.70
2023-01-26T22:04:26.344Z,36.17
2023-01-26T22:06:54.379Z,45.23
2023-01-26T22:09:23.797Z,45.20
2023-01-26T22:11:52.251Z,42.07
2023-01-26T22:14:21.585Z,36.17
2023-01-26T22:16:49.993Z,38.97
2023-01-26T22:19:19.404Z,38.13
2023-01-26T22:21:47.299Z,42.90
2023-01-26T22:24:17.899Z,42.63
2023-01-26T22:26:45.963Z,37.87
2023-01-26T22:29:14.542Z,36.30
2023-01-26T22:31:42.724Z,40.90
2023-01-26T22:34:11.554Z,33.17
2023-01-26T22:36:41.389Z,41.10
2023-01-26T22:39:09.523Z,36.00
2023-01-26T22:41:37.722Z,35.00
2023-01-26T22:44:05.964Z,33.33
2023-01-26T22:46:34.281Z,40.97
2023-01-26T22:49:02.319Z,31.50
2023-01-26T22:51:31.938Z,29.77
2023-01-26T22:54:01.257Z,34.63
2023-01-26T22:56:29.199Z,28.60
2023-01-26T22:59:00.310Z,27.33
2023-01-26T23:01:31.146Z,28.20
2023-01-26T23:04:00.609Z,32.97
2023-01-26T23:06:29.086Z,29.33
2023-01-26T23:09:00.979Z,36.83
2023-01-26T23:11:30.597Z,36.37
2023-01-26T23:14:00.120Z,36.87
2023-01-26T23:16:28.987Z,34.57
2023-01-26T23:18:58.907Z,27.97
2023-01-26T23:21:28.652Z,28.87
2023-01-26T23:23:57.061Z,25.50
2023-01-26T23:26:25.439Z,23.70
2023-01-26T23:28:54.827Z,27.57
2023-01-26T23:31:22.754Z,27.67
2023-01-26T23:33:50.657Z,28.17
2023-01-26T23:36:18.668Z,28.33
2023-01-26T23:38:46.634Z,25.37
2023-01-26T23:41:14.562Z,31.33
2023-01-26T23:43:42.660Z,33.07
2023-01-26T23:46:12.967Z,31.33
2023-01-26T23:48:41.218Z,24.57
2023-01-26T23:51:11.245Z,26.03
2023-01-26T23:53:39.448Z,26.37
2023-01-26T23:56:09.697Z,25.00
2023-01-26T23:58:37.742Z,34.47
